Tucson, AZ (85704)

10:49 PM MST on July 27, 2016 (GMT -0700)
Casas Adobes | | Change Station

Elev 2400 ft 32.33 °N, 111.00 °W | Updated 10 seconds ago

Partly Cloudy
Partly Cloudy
78.4 °F
Feels Like 80 °F
N
2.7
Wind Variable Wind from SW
Gusts 4.0 mph

Today
High -- | Low -- °F
--% Chance of Precip.
Yesterday
High -- | Low -- °F
Precip. -- in
Pressure 29.93 in
Visibility 10.0 miles
Clouds Few 14000 ft
Heat Index 80 °F
Dew Point 60 °F
Humidity 54%
Rainfall 0.91 in
Snow Depth Not available.
5:35 AM 7:24 PM
Waning Crescent, 35% visible
SPECI KDMA 280545Z AUTO 13009KT 10SM FEW140 26/20 A2993 RMK AO2 LTG DSNT N DZB12E20RAB20E39DZB39E45
Pressure 29.93 in
Visibility 10.0 miles
Clouds Few 14000 ft
Heat Index 80 °F
Dew Point 60 °F
Humidity 54%
Rainfall 0.91 in
Snow Depth Not available.
5:35 AM 7:24 PM
Waning Crescent, 35% visible
SPECI KDMA 280545Z AUTO 13009KT 10SM FEW140 26/20 A2993 RMK AO2 LTG DSNT N DZB12E20RAB20E39DZB39E45

10-Day Weather Forecast

Almanac

Astronomy

Jul. 27, 2016 Rise Set
Actual Time
Civil Twilight
Nautical Twilight
Astronomical Twilight
Moon
Length of Visible Light
Length of Day
Tomorrow will be .
, % of the Moon is Illuminated

Today's Extremes

State Highs State Lows

Community

WunderPhotos

Upload Photos

1,928,064 photos uploaded!

WunderBlog® & News

Nearby

Air Quality

  Air Quality AQ Index Pollutant
Not available.

Snow Depth

Station Depth Elevation

Earthquake Activity

City Distance Mag. Time & Date
Minimum magnitude displayed is 2.5.

Coastal Water Temperatures

Place Temperature

Stations

Nearby Weather Stations

Station Location Temp. Windchill Dew Point Humidity Wind Precip. Elev Updated Type
                   

Watches & Warnings

There are currently no watches in effect.